Time;durP1;ratioP1;P1;durP2;ratioP2;P2;SDS_P1;SDS_P2;PMS_P1;PMS_P2;Temp;Humidity;BMP_temperature;BMP_pressure;BME280_temperature;BME280_humidity;BME280_pressure;Samples;Min_cycle;Max_cycle;Signal;HPM_P1;HPM_P2
2022/12/01 00:02:05;;;;;;;1.00;1.00;;;;;;;;;;1827437;77;26769;-40
2022/12/01 00:04:32;;;;;;;0.80;0.80;;;;;;;;;;1827574;77;26225;-41
2022/12/01 00:06:59;;;;;;;0.80;0.80;;;;;;;;;;1830001;77;26274;-40
2022/12/01 00:12:11;;;;;;;0.85;0.85;;;;;;;;;;1826470;77;26309;-43
2022/12/01 00:14:39;;;;;;;0.90;0.90;;;;;;;;;;1826919;77;26279;-44
2022/12/01 00:17:06;;;;;;;0.80;0.80;;;;;;;;;;1799910;78;26345;-39
2022/12/01 00:19:33;;;;;;;0.80;0.80;;;;;;;;;;1793678;78;26227;-41
2022/12/01 00:22:00;;;;;;;0.90;0.90;;;;;;;;;;1796805;78;26187;-44
2022/12/01 00:24:28;;;;;;;0.70;0.70;;;;;;;;;;1796992;78;26266;-41
2022/12/01 00:26:55;;;;;;;0.80;0.80;;;;;;;;;;1810138;78;26185;-39
2022/12/01 00:29:22;;;;;;;0.80;0.80;;;;;;;;;;1799034;78;26552;-41
2022/12/01 00:31:49;;;;;;;0.90;0.90;;;;;;;;;;1796527;78;27022;-40
2022/12/01 00:34:24;;;;;;;0.80;0.80;;;;;;;;;;1797238;78;26734;-40
2022/12/01 00:36:51;;;;;;;0.80;0.80;;;;;;;;;;1797304;79;26206;-40
2022/12/01 00:39:18;;;;;;;0.80;0.80;;;;;;;;;;1797694;78;26304;-39
2022/12/01 00:41:45;;;;;;;0.70;0.70;;;;;;;;;;1771158;79;26332;-39
2022/12/01 00:44:13;;;;;;;0.72;0.72;;;;;;;;;;1797111;78;26217;-41
2022/12/01 00:46:40;;;;;;;0.80;0.80;;;;;;;;;;1773902;78;26212;-38
2022/12/01 00:49:09;;;;;;;0.70;0.70;;;;;;;;;;1830205;77;26206;-38
2022/12/01 00:51:36;;;;;;;0.90;0.90;;;;;;;;;;1833786;77;26299;-38
2022/12/01 00:54:03;;;;;;;0.80;0.80;;;;;;;;;;1829812;77;26210;-39
2022/12/01 00:56:30;;;;;;;1.00;1.00;;;;;;;;;;1834322;77;26275;-40
2022/12/01 00:58:58;;;;;;;0.85;0.85;;;;;;;;;;1833948;77;26603;-41
2022/12/01 01:01:25;;;;;;;0.90;0.90;;;;;;;;;;1842832;77;26356;-44
2022/12/01 01:03:53;;;;;;;0.80;0.80;;;;;;;;;;1843844;78;26301;-39
2022/12/01 01:06:20;;;;;;;0.70;0.70;;;;;;;;;;1850638;77;26714;-40
2022/12/01 01:08:47;;;;;;;0.70;0.70;;;;;;;;;;1842675;76;26790;-39
2022/12/01 01:11:14;;;;;;;0.70;0.70;;;;;;;;;;1844730;77;26703;-37
2022/12/01 01:13:41;;;;;;;0.70;0.70;;;;;;;;;;1844434;76;26204;-38
2022/12/01 01:16:13;;;;;;;0.80;0.80;;;;;;;;;;1810950;78;26234;-39
2022/12/01 01:18:41;;;;;;;0.82;0.82;;;;;;;;;;1810090;78;26753;-38
2022/12/01 01:21:09;;;;;;;0.80;0.80;;;;;;;;;;1792850;78;26239;-41
2022/12/01 01:23:37;;;;;;;0.90;0.90;;;;;;;;;;1804961;78;26235;-38
2022/12/01 01:26:06;;;;;;;0.70;0.70;;;;;;;;;;1801970;78;26283;-40
2022/12/01 01:28:33;;;;;;;0.70;0.70;;;;;;;;;;1805145;78;26821;-40
2022/12/01 01:31:02;;;;;;;0.70;0.70;;;;;;;;;;1805517;78;26205;-41
2022/12/01 01:33:29;;;;;;;0.70;0.70;;;;;;;;;;1804847;78;26335;-41
2022/12/01 01:35:58;;;;;;;0.78;0.78;;;;;;;;;;1805215;78;26233;-39
2022/12/01 01:38:26;;;;;;;0.70;0.70;;;;;;;;;;1804943;79;26760;-40
2022/12/01 01:40:53;;;;;;;0.70;0.70;;;;;;;;;;1804370;78;26237;-41
2022/12/01 01:43:39;;;;;;;0.70;0.70;;;;;;;;;;1802108;78;26537;-40
2022/12/01 01:46:06;;;;;;;0.60;0.60;;;;;;;;;;1803453;79;26663;-41
2022/12/01 01:48:34;;;;;;;0.70;0.70;;;;;;;;;;1805432;78;26185;-43
2022/12/01 01:51:02;;;;;;;0.70;0.70;;;;;;;;;;1803790;79;26655;-42
2022/12/01 01:53:29;;;;;;;0.80;0.80;;;;;;;;;;1794474;78;26307;-38
2022/12/01 01:55:57;;;;;;;0.80;0.80;;;;;;;;;;1798392;78;26662;-38
2022/12/01 01:58:25;;;;;;;0.70;0.70;;;;;;;;;;1805358;78;26186;-39
2022/12/01 02:00:52;;;;;;;0.80;0.80;;;;;;;;;;1802018;78;26714;-40
2022/12/01 02:03:20;;;;;;;0.60;0.60;;;;;;;;;;1796019;78;26640;-40
2022/12/01 02:05:47;;;;;;;0.60;0.60;;;;;;;;;;1796751;78;26190;-38
2022/12/01 02:08:15;;;;;;;0.57;0.57;;;;;;;;;;1796487;78;26207;-39
2022/12/01 02:10:46;;;;;;;0.80;0.80;;;;;;;;;;1796297;78;26246;-42
2022/12/01 02:13:21;;;;;;;0.70;0.70;;;;;;;;;;1789787;78;26206;-37
2022/12/01 02:15:53;;;;;;;0.70;0.70;;;;;;;;;;1792042;78;26180;-41
2022/12/01 02:18:22;;;;;;;0.70;0.70;;;;;;;;;;1803197;78;26613;-37
2022/12/01 02:20:56;;;;;;;0.60;0.60;;;;;;;;;;1796617;78;26273;-37
2022/12/01 02:23:42;;;;;;;0.80;0.80;;;;;;;;;;1795176;79;26269;-39
2022/12/01 02:26:11;;;;;;;0.70;0.70;;;;;;;;;;1795968;78;26624;-44
2022/12/01 02:28:42;;;;;;;0.60;0.60;;;;;;;;;;1795969;78;26584;-38
2022/12/01 02:31:14;;;;;;;0.60;0.60;;;;;;;;;;1794909;80;26620;-39
2022/12/01 02:33:43;;;;;;;0.60;0.60;;;;;;;;;;1788359;80;26241;-40
2022/12/01 02:36:17;;;;;;;0.57;0.57;;;;;;;;;;1795262;79;26227;-41
2022/12/01 02:38:46;;;;;;;0.50;0.50;;;;;;;;;;1777552;78;26314;-39
2022/12/01 02:41:21;;;;;;;0.60;0.60;;;;;;;;;;1797055;78;26261;-37
2022/12/01 02:43:56;;;;;;;0.60;0.60;;;;;;;;;;1796824;78;26305;-44
2022/12/01 02:46:25;;;;;;;0.60;0.60;;;;;;;;;;1798379;78;26294;-41
2022/12/01 02:48:54;;;;;;;0.72;0.60;;;;;;;;;;1789111;78;26325;-41
2022/12/01 02:51:27;;;;;;;0.60;0.60;;;;;;;;;;1797104;78;26175;-42
2022/12/01 02:53:56;;;;;;;0.60;0.60;;;;;;;;;;1796529;78;26207;-44
2022/12/01 02:56:23;;;;;;;0.60;0.60;;;;;;;;;;1796680;78;26175;-44
2022/12/01 02:58:51;;;;;;;0.62;0.62;;;;;;;;;;1813360;78;26174;-44
2022/12/01 03:01:36;;;;;;;0.60;0.60;;;;;;;;;;1804568;78;26251;-40
2022/12/01 03:04:14;;;;;;;0.50;0.50;;;;;;;;;;1794927;78;26699;-37
2022/12/01 03:07:01;;;;;;;0.60;0.60;;;;;;;;;;1796902;78;26614;-38
2022/12/01 03:09:36;;;;;;;0.70;0.70;;;;;;;;;;1808378;78;26233;-39
2022/12/01 03:12:22;;;;;;;0.60;0.60;;;;;;;;;;1811522;78;26365;-44
2022/12/01 03:14:53;;;;;;;0.60;0.60;;;;;;;;;;1803813;78;26304;-38
2022/12/01 03:17:22;;;;;;;0.70;0.70;;;;;;;;;;1775321;79;26310;-39
2022/12/01 03:19:51;;;;;;;1.05;0.60;;;;;;;;;;1803278;78;26305;-37
2022/12/01 03:22:24;;;;;;;0.60;0.60;;;;;;;;;;1845371;77;26223;-41
2022/12/01 03:24:52;;;;;;;0.50;0.50;;;;;;;;;;1844811;77;26216;-45
2022/12/01 03:27:21;;;;;;;0.50;0.50;;;;;;;;;;1820080;77;26197;-40
2022/12/01 03:29:50;;;;;;;0.50;0.50;;;;;;;;;;1831819;77;26290;-40
2022/12/01 03:32:30;;;;;;;0.60;0.60;;;;;;;;;;1837395;77;26237;-38
2022/12/01 03:34:59;;;;;;;0.68;0.68;;;;;;;;;;1834057;77;26742;-40
2022/12/01 03:37:29;;;;;;;0.60;0.60;;;;;;;;;;1835693;77;26221;-42
2022/12/01 03:39:56;;;;;;;0.70;0.70;;;;;;;;;;1837215;77;26850;-38
2022/12/01 03:42:25;;;;;;;0.50;0.50;;;;;;;;;;1836870;77;26230;-41
2022/12/01 03:44:54;;;;;;;0.60;0.60;;;;;;;;;;1840192;77;26639;-39
2022/12/01 03:47:26;;;;;;;0.53;0.53;;;;;;;;;;1834020;77;26242;-42
2022/12/01 03:49:53;;;;;;;0.60;0.60;;;;;;;;;;1850016;77;26193;-38
2022/12/01 03:52:31;;;;;;;0.60;0.60;;;;;;;;;;1837218;77;26643;-38
2022/12/01 03:55:06;;;;;;;0.55;0.55;;;;;;;;;;1821001;77;26784;-38
2022/12/01 03:57:35;;;;;;;0.50;0.50;;;;;;;;;;1828508;77;26264;-40
2022/12/01 04:00:03;;;;;;;0.50;0.50;;;;;;;;;;1837149;77;26206;-43
2022/12/01 04:02:30;;;;;;;0.60;0.60;;;;;;;;;;1847077;76;26259;-41
2022/12/01 04:04:58;;;;;;;0.53;0.53;;;;;;;;;;1850748;77;26204;-39
2022/12/01 04:07:25;;;;;;;0.60;0.60;;;;;;;;;;1849229;76;26228;-43
2022/12/01 04:09:52;;;;;;;0.50;0.50;;;;;;;;;;1849397;77;26329;-39
2022/12/01 04:12:28;;;;;;;0.60;0.60;;;;;;;;;;1815829;77;26222;-42
2022/12/01 04:14:57;;;;;;;0.62;0.62;;;;;;;;;;1820893;78;26698;-39
2022/12/01 04:17:24;;;;;;;0.50;0.50;;;;;;;;;;1822076;77;26520;-41
2022/12/01 04:19:52;;;;;;;0.60;0.60;;;;;;;;;;1798556;79;26340;-41
2022/12/01 04:22:19;;;;;;;0.70;0.70;;;;;;;;;;1817743;77;26360;-41
2022/12/01 04:24:47;;;;;;;0.65;0.65;;;;;;;;;;1822542;78;26269;-40
2022/12/01 04:27:14;;;;;;;0.60;0.60;;;;;;;;;;1819345;77;26374;-40
2022/12/01 04:29:41;;;;;;;0.70;0.70;;;;;;;;;;1787811;79;26792;-40
2022/12/01 04:32:09;;;;;;;0.50;0.50;;;;;;;;;;1820404;77;27085;-42
2022/12/01 04:34:37;;;;;;;0.50;0.50;;;;;;;;;;1792142;78;26349;-42
2022/12/01 04:37:06;;;;;;;0.50;0.50;;;;;;;;;;1832934;76;26215;-37
2022/12/01 04:39:34;;;;;;;0.60;0.60;;;;;;;;;;1841906;77;26299;-39
2022/12/01 04:42:01;;;;;;;0.70;0.70;;;;;;;;;;1842040;76;26248;-41
2022/12/01 04:44:28;;;;;;;0.50;0.50;;;;;;;;;;1837258;77;26270;-40
2022/12/01 04:46:55;;;;;;;0.70;0.70;;;;;;;;;;1829053;78;26317;-38
2022/12/01 04:49:23;;;;;;;0.53;0.53;;;;;;;;;;1862393;76;26240;-42
2022/12/01 04:51:50;;;;;;;0.60;0.60;;;;;;;;;;1842144;77;26669;-40
2022/12/01 04:54:17;;;;;;;0.60;0.60;;;;;;;;;;1841865;77;26695;-39
2022/12/01 04:56:45;;;;;;;0.60;0.60;;;;;;;;;;1836788;76;26294;-39
2022/12/01 04:59:12;;;;;;;0.60;0.60;;;;;;;;;;1845906;76;26252;-38
2022/12/01 05:01:40;;;;;;;0.50;0.50;;;;;;;;;;1855015;76;26247;-39
2022/12/01 05:04:08;;;;;;;0.40;0.40;;;;;;;;;;1839278;78;26679;-42
2022/12/01 05:06:36;;;;;;;0.40;0.40;;;;;;;;;;1836046;77;26710;-38
2022/12/01 05:09:03;;;;;;;0.60;0.60;;;;;;;;;;1822900;78;26214;-41
2022/12/01 05:11:31;;;;;;;0.30;0.30;;;;;;;;;;1839949;78;26285;-41
2022/12/01 05:13:59;;;;;;;0.60;0.60;;;;;;;;;;1839055;76;26208;-39
2022/12/01 05:16:31;;;;;;;0.50;0.50;;;;;;;;;;1832591;78;26236;-41
2022/12/01 05:21:49;;;;;;;0.60;0.60;;;;;;;;;;1820528;77;26287;-39
2022/12/01 05:24:18;;;;;;;0.50;0.50;;;;;;;;;;1822871;78;26167;-42
2022/12/01 05:26:45;;;;;;;0.40;0.40;;;;;;;;;;1824078;76;26349;-44
2022/12/01 05:29:13;;;;;;;0.50;0.50;;;;;;;;;;1822395;78;26226;-40
2022/12/01 05:31:40;;;;;;;0.40;0.40;;;;;;;;;;1820575;77;26230;-40
2022/12/01 05:34:08;;;;;;;0.60;0.60;;;;;;;;;;1825317;77;26315;-42
2022/12/01 05:36:36;;;;;;;0.50;0.50;;;;;;;;;;1819428;77;26273;-42
2022/12/01 05:39:03;;;;;;;0.50;0.50;;;;;;;;;;1821727;78;26993;-40
2022/12/01 05:41:31;;;;;;;0.50;0.50;;;;;;;;;;1817397;77;26291;-42
2022/12/01 05:43:58;;;;;;;0.50;0.50;;;;;;;;;;1834797;77;26266;-37
2022/12/01 05:46:25;;;;;;;0.50;0.50;;;;;;;;;;1838404;76;26290;-41
2022/12/01 05:48:52;;;;;;;0.65;0.47;;;;;;;;;;1844146;76;26230;-39
2022/12/01 05:51:20;;;;;;;0.40;0.40;;;;;;;;;;1836165;76;26215;-37
2022/12/01 05:53:47;;;;;;;0.50;0.50;;;;;;;;;;1839366;76;26748;-40
2022/12/01 05:56:14;;;;;;;1.45;0.45;;;;;;;;;;1837310;78;26207;-37
2022/12/01 05:58:41;;;;;;;0.98;0.50;;;;;;;;;;1838729;78;26215;-43
2022/12/01 06:01:09;;;;;;;0.40;0.40;;;;;;;;;;1838803;76;26288;-38
2022/12/01 06:03:36;;;;;;;0.45;0.45;;;;;;;;;;1826382;77;26291;-42
2022/12/01 06:06:04;;;;;;;0.50;0.50;;;;;;;;;;1834793;77;26230;-43
2022/12/01 06:08:31;;;;;;;1.15;0.53;;;;;;;;;;1836854;78;26227;-42
2022/12/01 06:10:58;;;;;;;0.78;0.50;;;;;;;;;;1826714;77;26224;-40
2022/12/01 06:13:25;;;;;;;0.65;0.60;;;;;;;;;;1838839;78;26236;-39
2022/12/01 06:15:57;;;;;;;1.10;0.60;;;;;;;;;;1809961;77;26265;-39
2022/12/01 06:18:25;;;;;;;3.25;0.78;;;;;;;;;;1789372;79;26222;-44
2022/12/01 06:20:52;;;;;;;0.60;0.60;;;;;;;;;;1830338;77;26285;-41
2022/12/01 06:23:19;;;;;;;0.75;0.65;;;;;;;;;;1837023;76;26285;-40
2022/12/01 06:25:47;;;;;;;3.05;0.70;;;;;;;;;;1841694;76;26188;-40
2022/12/01 06:28:14;;;;;;;1.85;0.70;;;;;;;;;;1838752;76;26266;-39
2022/12/01 06:30:41;;;;;;;1.50;1.30;;;;;;;;;;1845132;76;26208;-40
2022/12/01 06:33:08;;;;;;;6.87;2.25;;;;;;;;;;1822974;77;26241;-39
2022/12/01 06:35:36;;;;;;;11.83;4.55;;;;;;;;;;1822763;77;26718;-40
2022/12/01 06:38:04;;;;;;;18.85;7.42;;;;;;;;;;1824881;77;26222;-42
2022/12/01 06:40:31;;;;;;;18.87;7.78;;;;;;;;;;1831572;77;27016;-40
2022/12/01 06:43:01;;;;;;;22.50;8.68;;;;;;;;;;1819344;77;26295;-37
2022/12/01 06:45:29;;;;;;;23.95;9.48;;;;;;;;;;1813932;78;26245;-40
2022/12/01 06:47:56;;;;;;;24.57;8.60;;;;;;;;;;1820125;78;26233;-42
2022/12/01 06:50:24;;;;;;;18.98;8.65;;;;;;;;;;1789819;79;26187;-39
2022/12/01 06:52:51;;;;;;;25.88;9.00;;;;;;;;;;1822657;77;26989;-41
2022/12/01 06:55:19;;;;;;;17.95;7.62;;;;;;;;;;1810411;78;26210;-38
2022/12/01 06:57:46;;;;;;;20.20;7.80;;;;;;;;;;1822105;77;26226;-43
2022/12/01 07:00:14;;;;;;;16.87;7.30;;;;;;;;;;1822121;78;26268;-38
2022/12/01 07:02:41;;;;;;;14.83;7.25;;;;;;;;;;1784940;80;27184;-45
2022/12/01 07:05:09;;;;;;;17.55;6.83;;;;;;;;;;1796149;79;26312;-43
2022/12/01 07:07:37;;;;;;;13.53;6.30;;;;;;;;;;1831312;77;26663;-39
2022/12/01 07:10:05;;;;;;;15.90;5.92;;;;;;;;;;1796892;78;26278;-41
2022/12/01 07:12:32;;;;;;;11.83;5.45;;;;;;;;;;1797636;78;26244;-43
2022/12/01 07:15:00;;;;;;;11.85;5.20;;;;;;;;;;1815182;78;26215;-39
2022/12/01 07:17:28;;;;;;;9.70;4.70;;;;;;;;;;1784607;78;26300;-39
2022/12/01 07:19:55;;;;;;;8.45;4.47;;;;;;;;;;1753118;81;26258;-43
2022/12/01 07:22:23;;;;;;;11.88;4.17;;;;;;;;;;1797737;78;26310;-39
2022/12/01 07:24:50;;;;;;;9.55;3.70;;;;;;;;;;1796620;78;26234;-40
2022/12/01 07:27:17;;;;;;;9.58;3.72;;;;;;;;;;1790045;78;26194;-41
2022/12/01 07:29:44;;;;;;;5.70;3.60;;;;;;;;;;1828922;76;26208;-40
2022/12/01 07:32:12;;;;;;;6.67;3.50;;;;;;;;;;1826243;77;26325;-42
2022/12/01 07:34:39;;;;;;;6.05;3.02;;;;;;;;;;1831243;76;26248;-42
2022/12/01 07:37:06;;;;;;;4.42;2.80;;;;;;;;;;1840682;76;26293;-41
2022/12/01 07:39:33;;;;;;;4.70;2.60;;;;;;;;;;1837662;76;26242;-42
2022/12/01 07:42:01;;;;;;;3.90;2.60;;;;;;;;;;1833464;76;26751;-41
2022/12/01 07:44:28;;;;;;;4.20;2.60;;;;;;;;;;1838787;76;27329;-41
2022/12/01 07:46:55;;;;;;;5.90;2.10;;;;;;;;;;1841569;76;27081;-42
2022/12/01 07:49:22;;;;;;;4.05;2.15;;;;;;;;;;1834444;76;26267;-41
2022/12/01 07:51:50;;;;;;;2.45;1.85;;;;;;;;;;1833795;76;26293;-39
2022/12/01 07:54:19;;;;;;;2.10;1.90;;;;;;;;;;1853527;76;26215;-42
2022/12/01 07:56:46;;;;;;;2.35;1.70;;;;;;;;;;1861729;76;26274;-41
2022/12/01 07:59:13;;;;;;;4.00;1.70;;;;;;;;;;1834996;76;26294;-40
2022/12/01 08:01:41;;;;;;;1.60;1.50;;;;;;;;;;1837746;77;26587;-41
2022/12/01 08:04:08;;;;;;;1.92;1.70;;;;;;;;;;1828451;76;26275;-39
2022/12/01 08:06:35;;;;;;;1.57;1.47;;;;;;;;;;1835634;76;26236;-40
2022/12/01 08:09:03;;;;;;;1.52;1.42;;;;;;;;;;1843237;77;26639;-44
2022/12/01 08:11:30;;;;;;;3.50;1.57;;;;;;;;;;1837630;77;26227;-43
2022/12/01 08:13:58;;;;;;;1.47;1.32;;;;;;;;;;1838556;77;26239;-40
2022/12/01 08:16:25;;;;;;;1.47;1.37;;;;;;;;;;1833334;77;26212;-39
2022/12/01 08:18:53;;;;;;;1.32;1.25;;;;;;;;;;1841945;76;26685;-38
2022/12/01 08:21:21;;;;;;;1.50;1.40;;;;;;;;;;1831839;76;26270;-40
2022/12/01 08:23:48;;;;;;;1.30;1.20;;;;;;;;;;1846066;76;26298;-39
2022/12/01 08:26:17;;;;;;;1.22;1.22;;;;;;;;;;1803615;78;26320;-39
2022/12/01 08:28:45;;;;;;;1.32;1.22;;;;;;;;;;1832336;76;26722;-39
2022/12/01 08:31:14;;;;;;;1.10;1.10;;;;;;;;;;1860588;76;26193;-38
2022/12/01 08:33:41;;;;;;;1.10;1.10;;;;;;;;;;1839145;76;26256;-39
2022/12/01 08:36:08;;;;;;;1.35;1.22;;;;;;;;;;1807047;77;26307;-38
2022/12/01 08:38:36;;;;;;;1.00;1.00;;;;;;;;;;1829358;78;27052;-38
2022/12/01 08:41:04;;;;;;;1.07;1.07;;;;;;;;;;1827332;76;26236;-39
2022/12/01 08:43:32;;;;;;;1.35;0.90;;;;;;;;;;1834439;76;26314;-40
2022/12/01 08:46:00;;;;;;;1.98;1.15;;;;;;;;;;1837804;76;26376;-39
2022/12/01 08:48:31;;;;;;;0.88;0.88;;;;;;;;;;1836101;76;26634;-41
2022/12/01 08:51:02;;;;;;;0.90;0.90;;;;;;;;;;1839859;76;26192;-38
2022/12/01 08:53:30;;;;;;;2.45;0.90;;;;;;;;;;1848956;76;26660;-41
2022/12/01 08:56:01;;;;;;;0.88;0.88;;;;;;;;;;1834364;76;26266;-38
2022/12/01 08:58:28;;;;;;;0.80;0.78;;;;;;;;;;1832960;76;26834;-40
2022/12/01 09:01:03;;;;;;;0.90;0.90;;;;;;;;;;1834287;77;26219;-40
2022/12/01 09:03:31;;;;;;;0.98;0.98;;;;;;;;;;1813456;76;26751;-40
2022/12/01 09:06:02;;;;;;;1.25;1.15;;;;;;;;;;1843137;76;26259;-39
2022/12/01 09:08:32;;;;;;;2.12;0.80;;;;;;;;;;1829884;76;26284;-43
2022/12/01 09:11:00;;;;;;;0.80;0.80;;;;;;;;;;1801176;78;26638;-40
2022/12/01 09:13:28;;;;;;;0.80;0.80;;;;;;;;;;1786852;78;26245;-41
2022/12/01 09:16:00;;;;;;;0.88;0.88;;;;;;;;;;1763534;80;26336;-38
2022/12/01 09:18:27;;;;;;;0.82;0.82;;;;;;;;;;1805796;78;26306;-41
2022/12/01 09:20:55;;;;;;;0.90;0.90;;;;;;;;;;1765686;80;26255;-41
2022/12/01 09:23:22;;;;;;;0.70;0.70;;;;;;;;;;1788024;79;26337;-40
2022/12/01 09:25:50;;;;;;;0.60;0.60;;;;;;;;;;1787604;79;26752;-38
2022/12/01 09:28:18;;;;;;;0.90;0.90;;;;;;;;;;1785829;79;26261;-43
2022/12/01 09:30:46;;;;;;;0.60;0.60;;;;;;;;;;1788355;79;25638;-42
2022/12/01 09:33:13;;;;;;;0.70;0.70;;;;;;;;;;1784148;79;26219;-42
2022/12/01 09:35:40;;;;;;;0.70;0.70;;;;;;;;;;1789260;80;26226;-41
2022/12/01 09:38:08;;;;;;;0.80;0.80;;;;;;;;;;1785442;79;26354;-40
2022/12/01 09:40:37;;;;;;;0.70;0.70;;;;;;;;;;1788313;80;26222;-39
2022/12/01 09:43:06;;;;;;;0.75;0.70;;;;;;;;;;1787485;79;26294;-38
2022/12/01 09:45:35;;;;;;;0.78;0.78;;;;;;;;;;1774176;79;26308;-39
2022/12/01 09:48:02;;;;;;;0.80;0.80;;;;;;;;;;1787625;80;26227;-40
2022/12/01 09:50:30;;;;;;;0.80;0.80;;;;;;;;;;1807838;79;26254;-41
2022/12/01 09:52:59;;;;;;;0.88;0.88;;;;;;;;;;1764685;80;26329;-38
2022/12/01 09:55:28;;;;;;;0.70;0.70;;;;;;;;;;1788015;79;26799;-43
2022/12/01 09:57:57;;;;;;;0.70;0.70;;;;;;;;;;1789259;80;26222;-39
2022/12/01 10:00:25;;;;;;;0.60;0.60;;;;;;;;;;1807776;79;26305;-41
2022/12/01 10:03:12;;;;;;;0.70;0.70;;;;;;;;;;1811273;78;26234;-39
2022/12/01 10:05:50;;;;;;;0.65;0.65;;;;;;;;;;1791453;78;26683;-41
2022/12/01 10:08:19;;;;;;;0.70;0.70;;;;;;;;;;1796262;78;26261;-38
2022/12/01 10:10:47;;;;;;;0.70;0.70;;;;;;;;;;1797099;78;26251;-39
2022/12/01 10:13:16;;;;;;;0.70;0.70;;;;;;;;;;1797399;79;26742;-39
2022/12/01 10:15:57;;;;;;;0.60;0.60;;;;;;;;;;1797004;78;26130;-41
2022/12/01 10:18:42;;;;;;;0.60;0.60;;;;;;;;;;1830852;77;26216;-40
2022/12/01 10:21:23;;;;;;;0.70;0.70;;;;;;;;;;1806291;79;26227;-39
2022/12/01 10:23:57;;;;;;;0.60;0.60;;;;;;;;;;1791826;79;26752;-40
2022/12/01 10:26:27;;;;;;;1.00;0.70;;;;;;;;;;1787864;79;26685;-44
2022/12/01 10:28:56;;;;;;;0.70;0.70;;;;;;;;;;1790176;78;26248;-39
2022/12/01 10:31:31;;;;;;;0.70;0.70;;;;;;;;;;1822734;77;26365;-41
2022/12/01 10:34:03;;;;;;;0.60;0.60;;;;;;;;;;1783436;79;26183;-43
2022/12/01 10:36:31;;;;;;;0.65;0.65;;;;;;;;;;1822250;77;26301;-39
2022/12/01 10:38:59;;;;;;;0.60;0.60;;;;;;;;;;1827323;77;26717;-38
2022/12/01 10:41:28;;;;;;;0.60;0.60;;;;;;;;;;1836296;77;26226;-45
2022/12/01 10:43:58;;;;;;;0.60;0.60;;;;;;;;;;1842702;76;26263;-42
2022/12/01 10:46:27;;;;;;;0.80;0.80;;;;;;;;;;1828860;77;26640;-41
2022/12/01 10:48:55;;;;;;;0.75;0.75;;;;;;;;;;1842616;78;26747;-39
2022/12/01 10:51:24;;;;;;;0.70;0.70;;;;;;;;;;1842674;77;26265;-38
2022/12/01 10:53:52;;;;;;;0.68;0.68;;;;;;;;;;1838094;76;26958;-41
2022/12/01 10:56:20;;;;;;;0.72;0.72;;;;;;;;;;1841805;77;26285;-38
2022/12/01 10:58:49;;;;;;;0.70;0.70;;;;;;;;;;1842554;76;26313;-42
2022/12/01 11:01:21;;;;;;;0.70;0.70;;;;;;;;;;1841371;76;26650;-41
2022/12/01 11:03:50;;;;;;;0.60;0.60;;;;;;;;;;1838972;76;26220;-40
2022/12/01 11:06:19;;;;;;;0.70;0.70;;;;;;;;;;1842815;76;26309;-40
2022/12/01 11:08:48;;;;;;;1.17;0.75;;;;;;;;;;1857438;76;26318;-44
2022/12/01 11:11:22;;;;;;;0.70;0.70;;;;;;;;;;1855508;77;26716;-38
2022/12/01 11:13:50;;;;;;;0.80;0.80;;;;;;;;;;1817500;77;26261;-41
2022/12/01 11:16:35;;;;;;;0.70;0.70;;;;;;;;;;1808521;78;26212;-44
2022/12/01 11:19:09;;;;;;;0.70;0.70;;;;;;;;;;1821868;77;27026;-43
2022/12/01 11:21:38;;;;;;;0.70;0.70;;;;;;;;;;1795138;79;26668;-38
2022/12/01 11:24:07;;;;;;;0.60;0.60;;;;;;;;;;1787872;79;26333;-41
2022/12/01 11:26:34;;;;;;;0.80;0.80;;;;;;;;;;1791427;79;26219;-43
2022/12/01 11:29:06;;;;;;;0.70;0.70;;;;;;;;;;1815308;79;26211;-39
2022/12/01 11:31:41;;;;;;;0.80;0.80;;;;;;;;;;1818377;77;26257;-40
2022/12/01 11:34:22;;;;;;;0.80;0.80;;;;;;;;;;1772535;80;26255;-37
2022/12/01 11:36:50;;;;;;;1.32;1.00;;;;;;;;;;1779005;79;26222;-37
2022/12/01 11:39:31;;;;;;;1.15;1.05;;;;;;;;;;1827984;77;26229;-41
2022/12/01 11:42:00;;;;;;;0.88;0.88;;;;;;;;;;1827804;77;26210;-37
2022/12/01 11:44:28;;;;;;;3.37;1.37;;;;;;;;;;1829002;77;26217;-41
2022/12/01 11:46:55;;;;;;;1.95;1.30;;;;;;;;;;1828615;77;26226;-45
2022/12/01 11:49:24;;;;;;;2.12;1.40;;;;;;;;;;1827407;77;26608;-39
2022/12/01 11:51:51;;;;;;;2.15;1.40;;;;;;;;;;1804079;78;26218;-43
2022/12/01 11:54:23;;;;;;;1.87;1.50;;;;;;;;;;1792286;80;26273;-45
2022/12/01 11:56:51;;;;;;;1.52;1.42;;;;;;;;;;1793622;79;26194;-44
2022/12/01 11:59:25;;;;;;;1.77;1.60;;;;;;;;;;1793777;80;26242;-48
2022/12/01 12:02:10;;;;;;;1.50;1.40;;;;;;;;;;1821406;77;26336;-37
2022/12/01 12:04:39;;;;;;;1.52;1.50;;;;;;;;;;1820901;78;26300;-37
2022/12/01 12:07:24;;;;;;;1.90;1.62;;;;;;;;;;1803890;78;26264;-39
2022/12/01 12:09:58;;;;;;;3.37;1.80;;;;;;;;;;1813098;78;26313;-39
2022/12/01 12:12:44;;;;;;;1.70;1.60;;;;;;;;;;1810169;78;26207;-41
2022/12/01 12:15:29;;;;;;;2.00;1.90;;;;;;;;;;1797581;78;26271;-40
2022/12/01 12:18:03;;;;;;;2.12;1.95;;;;;;;;;;1805514;78;26269;-39
2022/12/01 12:20:35;;;;;;;1.98;1.80;;;;;;;;;;1809755;78;26218;-39
2022/12/01 12:23:12;;;;;;;4.50;1.87;;;;;;;;;;1807492;78;26223;-39
2022/12/01 12:25:44;;;;;;;2.55;2.10;;;;;;;;;;1819980;78;26251;-40
2022/12/01 12:28:16;;;;;;;1.77;1.67;;;;;;;;;;1810275;78;26215;-38
2022/12/01 12:30:45;;;;;;;5.05;1.82;;;;;;;;;;1809604;79;26753;-47
2022/12/01 12:33:13;;;;;;;4.10;1.80;;;;;;;;;;1812024;78;26660;-38
2022/12/01 12:35:42;;;;;;;2.25;1.90;;;;;;;;;;1805452;78;26791;-39
2022/12/01 12:38:26;;;;;;;2.10;1.90;;;;;;;;;;1807272;79;25275;-41
2022/12/01 12:40:57;;;;;;;4.72;1.95;;;;;;;;;;1815546;78;26667;-43
2022/12/01 12:43:29;;;;;;;2.60;1.80;;;;;;;;;;1780857;79;26281;-40
2022/12/01 12:46:01;;;;;;;3.55;1.60;;;;;;;;;;1788778;78;26316;-38
2022/12/01 12:48:30;;;;;;;1.98;1.70;;;;;;;;;;1773751;79;26261;-43
2022/12/01 12:51:01;;;;;;;2.37;1.60;;;;;;;;;;1768648;80;26272;-42
2022/12/01 12:53:30;;;;;;;2.55;1.45;;;;;;;;;;1806388;79;26228;-42
2022/12/01 12:56:00;;;;;;;1.62;1.50;;;;;;;;;;1808652;79;26714;-43
2022/12/01 12:58:32;;;;;;;3.35;1.60;;;;;;;;;;1808859;78;26207;-41
2022/12/01 13:01:10;;;;;;;1.82;1.50;;;;;;;;;;1809600;78;26691;-37
2022/12/01 13:03:51;;;;;;;2.42;1.75;;;;;;;;;;1809817;78;26230;-40
2022/12/01 13:06:19;;;;;;;1.90;1.60;;;;;;;;;;1820800;77;26216;-38
2022/12/01 13:08:51;;;;;;;1.52;1.40;;;;;;;;;;1835392;77;26243;-40
2022/12/01 13:11:23;;;;;;;2.12;1.42;;;;;;;;;;1820663;77;26249;-44
2022/12/01 13:13:51;;;;;;;2.40;1.50;;;;;;;;;;1801372;78;26287;-38
2022/12/01 13:16:20;;;;;;;3.37;1.47;;;;;;;;;;1817995;76;26285;-40
2022/12/01 13:18:49;;;;;;;1.50;1.40;;;;;;;;;;1822701;77;26320;-42
2022/12/01 13:21:19;;;;;;;1.50;1.40;;;;;;;;;;1822996;77;26395;-39
2022/12/01 13:23:46;;;;;;;2.83;1.30;;;;;;;;;;1815207;78;26695;-39
2022/12/01 13:26:15;;;;;;;1.32;1.20;;;;;;;;;;1839165;77;26205;-40
2022/12/01 13:28:44;;;;;;;1.57;1.30;;;;;;;;;;1816485;77;26243;-42
2022/12/01 13:31:12;;;;;;;1.20;1.20;;;;;;;;;;1831136;77;26204;-51
2022/12/01 13:33:44;;;;;;;3.40;1.30;;;;;;;;;;1836335;77;26626;-40
2022/12/01 13:36:12;;;;;;;3.00;1.20;;;;;;;;;;1834515;77;26354;-39
2022/12/01 13:38:39;;;;;;;2.80;1.15;;;;;;;;;;1840844;77;26235;-39
2022/12/01 13:41:14;;;;;;;1.15;1.05;;;;;;;;;;1830569;77;26348;-42
2022/12/01 13:43:46;;;;;;;1.57;1.47;;;;;;;;;;1839499;77;26011;-47
2022/12/01 13:46:23;;;;;;;1.27;1.17;;;;;;;;;;1800374;78;26323;-42
2022/12/01 13:48:52;;;;;;;1.20;1.20;;;;;;;;;;1821498;77;26781;-43
2022/12/01 13:51:20;;;;;;;1.00;1.00;;;;;;;;;;1768103;81;26200;-38
2022/12/01 13:53:54;;;;;;;1.65;1.07;;;;;;;;;;1796168;78;26323;-40
2022/12/01 13:56:26;;;;;;;1.05;1.05;;;;;;;;;;1795923;79;26650;-40
2022/12/01 13:58:54;;;;;;;1.47;1.00;;;;;;;;;;1795147;78;26187;-36
2022/12/01 14:01:22;;;;;;;1.05;1.05;;;;;;;;;;1822434;77;26312;-39
2022/12/01 14:03:59;;;;;;;1.10;1.10;;;;;;;;;;1822137;78;26327;-41
2022/12/01 14:06:48;;;;;;;1.00;1.00;;;;;;;;;;1783280;80;26320;-42
2022/12/01 14:09:27;;;;;;;1.00;1.00;;;;;;;;;;1829839;77;26796;-40
2022/12/01 14:11:59;;;;;;;0.90;0.90;;;;;;;;;;1830397;77;26781;-39
2022/12/01 14:14:28;;;;;;;0.90;0.90;;;;;;;;;;1787140;78;26206;-39
2022/12/01 14:17:02;;;;;;;1.00;1.00;;;;;;;;;;1846914;76;27342;-39
2022/12/01 14:19:33;;;;;;;0.98;0.82;;;;;;;;;;1840145;76;26341;-40
2022/12/01 14:22:01;;;;;;;0.80;0.80;;;;;;;;;;1848591;76;26664;-41
2022/12/01 14:24:30;;;;;;;1.22;0.88;;;;;;;;;;1830251;78;26312;-41
2022/12/01 14:26:57;;;;;;;0.80;0.80;;;;;;;;;;1799203;78;26715;-38
2022/12/01 14:29:29;;;;;;;0.88;0.88;;;;;;;;;;1830875;77;26297;-40
2022/12/01 14:32:04;;;;;;;0.90;0.90;;;;;;;;;;1830786;77;26226;-38
2022/12/01 14:34:33;;;;;;;0.82;0.82;;;;;;;;;;1835321;77;26670;-38
2022/12/01 14:37:05;;;;;;;0.88;0.88;;;;;;;;;;1830762;78;26237;-41
2022/12/01 14:39:36;;;;;;;0.80;0.80;;;;;;;;;;1829644;77;26276;-38
2022/12/01 14:45:08;;;;;;;0.60;0.60;;;;;;;;;;1831840;77;26026;-37
2022/12/01 14:47:40;;;;;;;1.00;1.00;;;;;;;;;;1828560;77;26691;-40
2022/12/01 14:50:10;;;;;;;0.88;0.88;;;;;;;;;;1800828;77;28253;-37
2022/12/01 14:52:48;;;;;;;1.00;1.00;;;;;;;;;;1842961;76;26664;-38
2022/12/01 14:55:19;;;;;;;0.80;0.80;;;;;;;;;;1846767;77;26239;-39
2022/12/01 14:57:48;;;;;;;0.80;0.80;;;;;;;;;;1845307;76;26214;-38
2022/12/01 15:00:17;;;;;;;0.80;0.80;;;;;;;;;;1825450;76;26227;-38
2022/12/01 15:02:48;;;;;;;1.45;1.00;;;;;;;;;;1847723;77;26305;-41
2022/12/01 15:05:17;;;;;;;0.88;0.80;;;;;;;;;;1847497;76;26282;-40
2022/12/01 15:07:52;;;;;;;0.90;0.90;;;;;;;;;;1834807;76;26343;-41